Time;durP1;ratioP1;P1;durP2;ratioP2;P2;SDS_P1;SDS_P2;PMS_P1;PMS_P2;Temp;Humidity;BMP_temperature;BMP_pressure;BME280_temperature;BME280_humidity;BME280_pressure;Samples;Min_cycle;Max_cycle;Signal;HPM_P1;HPM_P2
2023/03/21 00:01:19;;;;;;;8.90;5.97;;;11.80;93.40;;;;;;5056251;28;20021;-65
2023/03/21 00:03:46;;;;;;;7.35;6.13;;;11.80;93.50;;;;;;5055919;28;20021;-66
2023/03/21 00:06:14;;;;;;;7.90;6.18;;;11.70;93.60;;;;;;5056143;28;20055;-66
2023/03/21 00:08:40;;;;;;;7.28;6.35;;;11.70;93.80;;;;;;5055842;28;20087;-66
2023/03/21 00:11:08;;;;;;;7.68;6.43;;;11.70;93.80;;;;;;5056055;28;20501;-66
2023/03/21 00:13:37;;;;;;;7.28;6.10;;;11.70;93.90;;;;;;5055794;28;20021;-65
2023/03/21 00:16:14;;;;;;;9.77;6.85;;;11.70;94.00;;;;;;5056126;28;20021;-66
2023/03/21 00:18:45;;;;;;;9.40;6.88;;;11.70;93.90;;;;;;5055525;28;20029;-66
2023/03/21 00:21:14;;;;;;;8.63;7.25;;;11.70;94.20;;;;;;5055847;28;20032;-66
2023/03/21 00:23:40;;;;;;;8.05;6.95;;;11.70;94.20;;;;;;5055355;28;20481;-66
2023/03/21 00:26:08;;;;;;;9.00;6.80;;;11.60;94.20;;;;;;5056011;28;20047;-66
2023/03/21 00:28:37;;;;;;;7.55;6.38;;;11.70;94.20;;;;;;5055450;28;20116;-66
2023/03/21 00:31:03;;;;;;;8.18;7.30;;;11.70;94.30;;;;;;5055818;28;20369;-65
2023/03/21 00:33:29;;;;;;;8.80;7.07;;;11.60;94.40;;;;;;5055883;28;20025;-65
2023/03/21 00:35:55;;;;;;;7.70;6.38;;;11.60;94.40;;;;;;5054677;28;20521;-65
2023/03/21 00:38:22;;;;;;;8.75;7.10;;;11.60;94.50;;;;;;5055744;28;20029;-65
2023/03/21 00:40:48;;;;;;;9.02;7.63;;;11.70;94.40;;;;;;5054839;28;20501;-66
2023/03/21 00:43:16;;;;;;;8.77;7.43;;;11.60;94.40;;;;;;5055336;28;20045;-66
2023/03/21 00:45:42;;;;;;;12.52;7.13;;;11.60;94.40;;;;;;5055087;28;20029;-67
2023/03/21 00:48:08;;;;;;;7.80;6.95;;;11.60;94.50;;;;;;5054038;28;20377;-68
2023/03/21 00:50:35;;;;;;;9.15;6.60;;;11.60;94.60;;;;;;5054976;28;20120;-65
2023/03/21 00:53:00;;;;;;;8.93;7.57;;;11.60;94.50;;;;;;5055124;28;20036;-66
2023/03/21 00:55:26;;;;;;;8.05;6.82;;;11.60;94.30;;;;;;5055148;28;20024;-66
2023/03/21 00:57:52;;;;;;;8.35;7.10;;;11.60;94.30;;;;;;5054872;28;20314;-66
2023/03/21 01:00:19;;;;;;;7.03;6.32;;;11.70;94.30;;;;;;5055034;28;20115;-66
2023/03/21 01:02:57;;;;;;;8.90;6.95;;;11.70;94.30;;;;;;5054913;28;20025;-66
2023/03/21 01:08:15;;;;;;;9.88;7.50;;;11.60;94.30;;;;;;5054984;28;20599;-66
2023/03/21 01:10:43;;;;;;;8.98;6.90;;;11.60;94.40;;;;;;5054531;28;20477;-66
2023/03/21 01:13:10;;;;;;;7.85;6.05;;;11.60;94.40;;;;;;5054979;28;20036;-66
2023/03/21 01:15:41;;;;;;;8.57;6.35;;;11.60;94.30;;;;;;5054278;28;20031;-66
2023/03/21 01:18:07;;;;;;;7.18;5.72;;;11.60;94.30;;;;;;5055060;28;20051;-66
2023/03/21 01:20:33;;;;;;;11.50;6.45;;;11.70;94.30;;;;;;5054884;28;20053;-65
2023/03/21 01:22:59;;;;;;;7.43;5.82;;;11.70;94.30;;;;;;5054758;28;20033;-65
2023/03/21 01:25:25;;;;;;;7.63;6.25;;;11.70;94.20;;;;;;5054434;28;20017;-65
2023/03/21 01:27:51;;;;;;;8.80;5.90;;;11.70;93.90;;;;;;5054070;28;20381;-65
2023/03/21 01:30:17;;;;;;;7.03;5.22;;;11.70;93.80;;;;;;5054581;28;20058;-65
2023/03/21 01:32:43;;;;;;;6.00;5.07;;;11.70;93.80;;;;;;5054241;28;20036;-65
2023/03/21 01:35:08;;;;;;;8.68;4.95;;;11.70;93.60;;;;;;5054652;28;20159;-65
2023/03/21 01:37:34;;;;;;;6.15;4.30;;;11.70;93.40;;;;;;5054552;28;20032;-65
2023/03/21 01:40:00;;;;;;;5.68;4.07;;;11.70;93.10;;;;;;5053967;28;20025;-65
2023/03/21 01:42:25;;;;;;;5.45;3.55;;;11.80;92.80;;;;;;5054378;28;20378;-65
2023/03/21 01:44:57;;;;;;;3.90;3.50;;;11.80;92.50;;;;;;5053534;28;20036;-65
2023/03/21 01:47:23;;;;;;;4.90;3.95;;;11.80;92.30;;;;;;5054488;28;20040;-65
2023/03/21 01:49:53;;;;;;;4.75;3.63;;;11.90;92.20;;;;;;5053483;28;20057;-66
2023/03/21 01:52:25;;;;;;;4.50;3.83;;;11.90;92.10;;;;;;5054794;28;20029;-66
2023/03/21 01:54:53;;;;;;;5.00;3.70;;;11.90;92.00;;;;;;5054010;28;20075;-66
2023/03/21 01:57:32;;;;;;;4.45;3.75;;;11.90;91.90;;;;;;5053844;28;20043;-66
2023/03/21 02:00:10;;;;;;;4.22;3.60;;;11.90;91.80;;;;;;5053743;28;20594;-66
2023/03/21 02:02:49;;;;;;;5.30;3.35;;;11.90;91.60;;;;;;5054159;28;20029;-66
2023/03/21 02:05:20;;;;;;;5.13;3.10;;;11.90;91.70;;;;;;5053353;28;20123;-66
2023/03/21 02:07:47;;;;;;;4.43;3.45;;;11.90;91.40;;;;;;5053430;28;20104;-66
2023/03/21 02:10:15;;;;;;;5.60;3.65;;;11.90;91.30;;;;;;5053968;28;20064;-65
2023/03/21 02:12:41;;;;;;;3.97;3.00;;;11.90;91.20;;;;;;5053477;28;20075;-66
2023/03/21 02:15:08;;;;;;;3.25;2.95;;;11.80;91.10;;;;;;5053802;28;20052;-65
2023/03/21 02:17:43;;;;;;;4.30;3.17;;;11.80;91.10;;;;;;5053717;28;20111;-65
2023/03/21 02:20:49;;;;;;;3.67;3.03;;;11.80;91.10;;;;;;5053766;28;20078;-66
2023/03/21 02:23:49;;;;;;;3.90;3.00;;;11.80;91.00;;;;;;5053675;28;20029;-66
2023/03/21 02:26:44;;;;;;;4.00;3.15;;;11.80;91.00;;;;;;5053459;28;20056;-66
2023/03/21 02:29:28;;;;;;;4.30;3.55;;;11.80;91.00;;;;;;5053337;28;20068;-66
2023/03/21 02:32:31;;;;;;;4.38;3.10;;;11.80;90.90;;;;;;5052739;28;20087;-66
2023/03/21 02:35:49;;;;;;;5.07;3.22;;;11.80;90.80;;;;;;5052863;28;20331;-66
2023/03/21 02:38:31;;;;;;;4.50;3.40;;;11.80;90.90;;;;;;5021922;28;20060;-66
2023/03/21 02:41:20;;;;;;;4.65;3.42;;;11.80;90.90;;;;;;5052913;28;20025;-66
2023/03/21 02:44:10;;;;;;;4.38;3.40;;;11.80;91.00;;;;;;5053128;28;20049;-66
2023/03/21 02:46:57;;;;;;;4.43;3.63;;;11.80;90.90;;;;;;5053004;28;20048;-66
2023/03/21 02:49:31;;;;;;;3.95;3.50;;;11.80;91.00;;;;;;5053079;28;20025;-66
2023/03/21 02:51:59;;;;;;;4.38;3.13;;;11.80;90.90;;;;;;5051370;28;20138;-66
2023/03/21 02:54:27;;;;;;;3.92;3.22;;;11.80;91.00;;;;;;5053095;28;20373;-66
2023/03/21 02:56:55;;;;;;;4.93;3.53;;;11.80;90.90;;;;;;5052623;28;20535;-66
2023/03/21 02:59:24;;;;;;;3.92;3.53;;;11.80;90.70;;;;;;5052782;28;20071;-66
2023/03/21 03:01:55;;;;;;;4.30;3.30;;;11.80;90.70;;;;;;5052590;28;20032;-66
2023/03/21 03:04:25;;;;;;;3.75;3.30;;;11.80;90.70;;;;;;5053033;28;20108;-66
2023/03/21 03:06:57;;;;;;;5.88;3.78;;;11.70;90.70;;;;;;5052408;28;20037;-66
2023/03/21 03:09:50;;;;;;;4.00;3.40;;;11.70;90.80;;;;;;5052748;28;20025;-66
2023/03/21 03:12:34;;;;;;;4.78;3.60;;;11.70;90.80;;;;;;5052892;28;20029;-66
2023/03/21 03:15:40;;;;;;;3.88;2.92;;;11.70;90.90;;;;;;5051875;28;20021;-65
2023/03/21 03:18:17;;;;;;;5.10;3.28;;;11.60;91.00;;;;;;5051595;28;20039;-65
2023/03/21 03:21:09;;;;;;;4.13;3.70;;;11.70;91.00;;;;;;5052633;28;20124;-68
2023/03/21 03:23:45;;;;;;;5.38;3.63;;;11.60;91.10;;;;;;5052478;28;20350;-65
2023/03/21 03:26:31;;;;;;;4.45;4.00;;;11.60;91.20;;;;;;5052526;28;20033;-65
2023/03/21 03:29:03;;;;;;;4.40;3.45;;;11.60;91.30;;;;;;5052043;28;20036;-65
2023/03/21 03:32:00;;;;;;;5.45;4.18;;;11.50;91.50;;;;;;5052591;28;20464;-65
2023/03/21 03:34:33;;;;;;;5.35;4.00;;;11.50;91.60;;;;;;5038183;28;20047;-66
2023/03/21 03:37:03;;;;;;;6.85;4.50;;;11.50;91.90;;;;;;5052275;28;20061;-66
2023/03/21 03:40:21;;;;;;;6.22;4.28;;;11.40;92.00;;;;;;5052668;28;20040;-66
2023/03/21 03:42:50;;;;;;;6.38;4.40;;;11.40;92.20;;;;;;5029063;28;20041;-66
2023/03/21 03:45:19;;;;;;;5.68;4.60;;;11.30;92.50;;;;;;5052575;28;20021;-66
2023/03/21 03:47:56;;;;;;;5.32;4.82;;;11.30;92.60;;;;;;5052399;28;20039;-67
2023/03/21 03:50:37;;;;;;;6.25;4.78;;;11.30;92.70;;;;;;5052474;28;20028;-66
2023/03/21 03:53:20;;;;;;;5.32;4.82;;;11.30;92.80;;;;;;5052154;28;20029;-65
2023/03/21 03:55:48;;;;;;;12.20;5.30;;;11.30;92.90;;;;;;5051978;28;20029;-67
2023/03/21 03:58:18;;;;;;;7.18;5.03;;;11.30;92.90;;;;;;5052199;28;20041;-66
2023/03/21 04:00:44;;;;;;;5.28;4.78;;;11.30;92.90;;;;;;5052483;28;20135;-66
2023/03/21 04:03:09;;;;;;;9.45;4.80;;;11.30;93.00;;;;;;5051760;28;20029;-66
2023/03/21 04:05:35;;;;;;;5.47;4.72;;;11.30;92.80;;;;;;5052316;28;20028;-66
2023/03/21 04:08:01;;;;;;;5.45;4.93;;;11.30;92.90;;;;;;5051550;28;20075;-66
2023/03/21 04:10:27;;;;;;;6.30;5.13;;;11.20;92.80;;;;;;5052042;28;20032;-66
2023/03/21 04:12:52;;;;;;;5.63;5.03;;;11.20;92.90;;;;;;5051810;28;20052;-66
2023/03/21 04:15:19;;;;;;;6.15;5.55;;;11.20;92.90;;;;;;5052102;28;20071;-66
2023/03/21 04:17:45;;;;;;;7.68;5.47;;;11.20;92.90;;;;;;5052239;28;20068;-66
2023/03/21 04:20:11;;;;;;;6.72;5.65;;;11.20;93.00;;;;;;5051716;28;20065;-66
2023/03/21 04:22:37;;;;;;;7.13;6.07;;;11.20;93.00;;;;;;5052247;28;20365;-65
2023/03/21 04:25:04;;;;;;;5.75;5.05;;;11.20;92.90;;;;;;5051545;28;20021;-66
2023/03/21 04:27:31;;;;;;;6.15;5.10;;;11.20;93.00;;;;;;5052135;28;20029;-65
2023/03/21 04:29:57;;;;;;;8.27;6.03;;;11.20;93.10;;;;;;5054696;28;20033;-66
2023/03/21 04:32:23;;;;;;;6.15;5.43;;;11.20;93.10;;;;;;5055617;28;20032;-65
2023/03/21 04:34:52;;;;;;;8.07;5.13;;;11.20;93.00;;;;;;5055081;28;20465;-65
2023/03/21 04:37:22;;;;;;;7.35;5.93;;;11.20;93.00;;;;;;5055859;28;20033;-65
2023/03/21 04:39:51;;;;;;;7.10;5.40;;;11.10;93.20;;;;;;5055681;28;20037;-65
2023/03/21 04:42:18;;;;;;;6.28;5.03;;;11.10;93.30;;;;;;5055361;28;20382;-65
2023/03/21 04:44:47;;;;;;;7.63;5.03;;;11.10;93.30;;;;;;5055686;28;20036;-65
2023/03/21 04:47:19;;;;;;;6.07;5.13;;;11.00;93.30;;;;;;5055013;28;20070;-66
2023/03/21 04:49:48;;;;;;;;;;;11.00;93.40;;;;;;5056038;28;20035;-66
2023/03/21 04:52:14;;;;;;;7.10;5.47;;;10.90;93.40;;;;;;5055352;28;19904;-66
2023/03/21 04:54:40;;;;;;;6.97;4.97;;;10.90;93.40;;;;;;5055337;28;20025;-65
2023/03/21 04:57:06;;;;;;;6.70;4.97;;;10.90;93.60;;;;;;5054715;28;20021;-65
2023/03/21 04:59:32;;;;;;;5.90;4.95;;;10.90;93.70;;;;;;5055000;28;20474;-65
2023/03/21 05:01:58;;;;;;;6.60;5.22;;;10.90;93.80;;;;;;5054548;28;20086;-66
2023/03/21 05:04:25;;;;;;;9.95;4.97;;;10.90;93.90;;;;;;5055692;28;20051;-65
2023/03/21 05:06:51;;;;;;;5.93;5.22;;;10.90;93.80;;;;;;5054505;28;20040;-66
2023/03/21 05:09:17;;;;;;;6.40;5.28;;;10.80;93.90;;;;;;5055094;28;20029;-65
2023/03/21 05:11:43;;;;;;;6.85;4.93;;;10.80;93.90;;;;;;5055114;28;20369;-65
2023/03/21 05:14:13;;;;;;;7.88;5.15;;;10.80;93.90;;;;;;5054599;28;20112;-65
2023/03/21 05:16:43;;;;;;;6.25;4.88;;;10.80;94.10;;;;;;5055723;28;20037;-65
2023/03/21 05:19:12;;;;;;;6.45;5.07;;;10.70;94.30;;;;;;5054827;28;20047;-66
2023/03/21 05:21:42;;;;;;;7.85;4.93;;;10.70;94.30;;;;;;5054906;28;20485;-66
2023/03/21 05:24:11;;;;;;;12.20;5.95;;;10.70;94.60;;;;;;5054754;28;20086;-66
2023/03/21 05:26:38;;;;;;;7.05;5.72;;;10.70;94.50;;;;;;5054730;28;20036;-65
2023/03/21 05:29:04;;;;;;;8.23;5.95;;;10.70;94.60;;;;;;5054134;28;20029;-65
2023/03/21 05:31:29;;;;;;;7.43;5.03;;;10.70;94.40;;;;;;5053321;28;20487;-65
2023/03/21 05:33:55;;;;;;;8.27;5.90;;;10.70;94.60;;;;;;5053972;28;20021;-66
2023/03/21 05:36:21;;;;;;;7.65;5.25;;;10.80;94.60;;;;;;5054235;28;20049;-65
2023/03/21 05:38:46;;;;;;;6.93;5.68;;;10.80;94.60;;;;;;5054129;28;20026;-65
2023/03/21 05:41:13;;;;;;;8.43;5.95;;;10.80;94.60;;;;;;5052633;28;20036;-65
2023/03/21 05:43:39;;;;;;;9.27;5.85;;;10.90;94.30;;;;;;5053953;28;20068;-65
2023/03/21 05:46:05;;;;;;;9.15;5.90;;;10.90;94.20;;;;;;5053581;28;20060;-66
2023/03/21 05:48:31;;;;;;;8.50;5.93;;;10.90;94.10;;;;;;5053594;28;20032;-66
2023/03/21 05:50:56;;;;;;;9.82;5.90;;;11.00;94.00;;;;;;5053711;28;20025;-66
2023/03/21 05:53:22;;;;;;;7.63;5.60;;;11.00;94.00;;;;;;5054055;28;20370;-65
2023/03/21 05:55:47;;;;;;;10.02;5.88;;;11.00;93.90;;;;;;5053949;28;20025;-65
2023/03/21 05:58:13;;;;;;;9.95;6.50;;;11.00;93.80;;;;;;5053629;28;20032;-66
2023/03/21 06:00:39;;;;;;;8.57;6.25;;;11.10;93.70;;;;;;5054287;28;20040;-65
2023/03/21 06:03:05;;;;;;;8.23;6.55;;;11.10;93.60;;;;;;5053390;28;20025;-65
2023/03/21 06:05:30;;;;;;;7.25;5.95;;;11.10;93.60;;;;;;5053770;28;20029;-65
2023/03/21 06:07:57;;;;;;;8.30;6.03;;;11.10;93.80;;;;;;5053198;28;20139;-65
2023/03/21 06:10:22;;;;;;;12.05;6.50;;;11.20;93.40;;;;;;5053831;28;20029;-65
2023/03/21 06:12:48;;;;;;;8.68;6.40;;;11.20;93.60;;;;;;5053878;28;20036;-65
2023/03/21 06:15:14;;;;;;;9.10;6.20;;;11.30;93.20;;;;;;5053521;28;20039;-65
2023/03/21 06:17:40;;;;;;;7.50;6.18;;;11.40;93.20;;;;;;5053788;28;20037;-65
2023/03/21 06:20:07;;;;;;;11.52;6.47;;;11.50;93.10;;;;;;5053294;28;20031;-65
2023/03/21 06:22:34;;;;;;;12.93;6.47;;;11.60;92.40;;;;;;5053596;28;20124;-65
2023/03/21 06:25:00;;;;;;;11.98;6.50;;;11.70;92.50;;;;;;5053096;28;20064;-67
2023/03/21 06:27:26;;;;;;;9.20;6.35;;;11.70;91.90;;;;;;5053535;28;20063;-66
2023/03/21 06:29:51;;;;;;;10.73;6.32;;;11.70;91.80;;;;;;5053031;28;20025;-66
2023/03/21 06:32:17;;;;;;;9.45;6.32;;;11.70;91.80;;;;;;5052914;28;20067;-66
2023/03/21 06:34:43;;;;;;;10.00;5.85;;;11.70;91.80;;;;;;5053370;28;20029;-66
2023/03/21 06:37:09;;;;;;;10.27;6.55;;;11.70;91.50;;;;;;5052673;28;20115;-68
2023/03/21 06:39:35;;;;;;;12.98;6.45;;;11.70;91.60;;;;;;5053293;28;20025;-65
2023/03/21 06:42:01;;;;;;;12.32;6.88;;;11.70;91.50;;;;;;5052643;28;20025;-66
2023/03/21 06:44:27;;;;;;;13.65;6.43;;;11.70;91.50;;;;;;5053330;28;20381;-66
2023/03/21 06:46:53;;;;;;;11.88;6.93;;;11.80;91.30;;;;;;5052667;28;20036;-66
2023/03/21 06:49:19;;;;;;;10.13;6.30;;;11.80;91.10;;;;;;5052483;28;20209;-66
2023/03/21 06:51:45;;;;;;;9.80;6.30;;;11.80;91.00;;;;;;5052691;28;20025;-65
2023/03/21 06:54:12;;;;;;;8.13;5.90;;;11.90;91.00;;;;;;5052629;28;20028;-65
2023/03/21 06:56:38;;;;;;;8.55;6.50;;;12.00;91.00;;;;;;5052633;28;20044;-65
2023/03/21 06:59:03;;;;;;;10.90;5.32;;;12.10;90.20;;;;;;5052408;28;20036;-66
2023/03/21 07:01:29;;;;;;;7.85;5.80;;;12.10;90.10;;;;;;5052692;28;20370;-65
2023/03/21 07:03:57;;;;;;;9.52;5.68;;;12.20;90.00;;;;;;5052936;28;20434;-65
2023/03/21 07:06:25;;;;;;;6.78;5.28;;;12.20;89.10;;;;;;5052325;28;20424;-64
2023/03/21 07:08:52;;;;;;;7.18;5.60;;;12.40;88.70;;;;;;5052554;28;20087;-64
2023/03/21 07:11:19;;;;;;;8.07;5.50;;;12.40;88.10;;;;;;5052392;28;20047;-66
2023/03/21 07:13:44;;;;;;;8.10;5.57;;;12.50;87.80;;;;;;5052825;28;20495;-66
2023/03/21 07:16:10;;;;;;;7.40;5.50;;;12.70;86.80;;;;;;5052085;28;20033;-66
2023/03/21 07:18:37;;;;;;;6.30;5.05;;;12.90;85.90;;;;;;5052058;28;20067;-66
2023/03/21 07:21:03;;;;;;;7.97;5.15;;;13.30;84.70;;;;;;5052130;28;20022;-66
2023/03/21 07:23:29;;;;;;;5.35;4.70;;;13.70;79.30;;;;;;5052657;28;20441;-66
2023/03/21 07:25:55;;;;;;;7.40;4.63;;;14.10;77.50;;;;;;5052597;28;20059;-66
2023/03/21 07:28:21;;;;;;;7.38;4.60;;;14.50;75.40;;;;;;5052396;28;20044;-66
2023/03/21 07:30:53;;;;;;;7.13;4.88;;;15.00;73.90;;;;;;5052455;28;20451;-65
2023/03/21 07:33:19;;;;;;;8.70;4.50;;;15.50;71.90;;;;;;5052214;28;20021;-65
2023/03/21 07:35:45;;;;;;;6.05;4.30;;;16.10;69.00;;;;;;5051164;28;20028;-66
2023/03/21 07:38:11;;;;;;;5.25;4.63;;;16.60;65.40;;;;;;5051389;28;20484;-66
2023/03/21 07:40:36;;;;;;;5.13;4.40;;;16.80;63.90;;;;;;5052446;28;20032;-66
2023/03/21 07:43:02;;;;;;;6.22;4.07;;;17.30;61.30;;;;;;5050662;28;20085;-67
2023/03/21 07:45:28;;;;;;;7.40;4.18;;;18.00;59.60;;;;;;5050539;28;20036;-66
2023/03/21 07:47:53;;;;;;;5.93;4.30;;;18.90;56.60;;;;;;5052228;28;20029;-66
2023/03/21 07:50:20;;;;;;;10.18;4.45;;;20.00;54.80;;;;;;5051961;28;20033;-66
2023/03/21 07:52:46;;;;;;;4.32;3.92;;;20.90;51.40;;;;;;5052162;28;20021;-66
2023/03/21 07:55:12;;;;;;;4.63;3.80;;;21.80;49.20;;;;;;5051732;28;20109;-66
2023/03/21 07:57:37;;;;;;;6.45;3.60;;;22.40;47.00;;;;;;5052080;28;20029;-66
2023/03/21 08:00:05;;;;;;;4.53;3.65;;;22.90;45.70;;;;;;5051830;28;20104;-68
2023/03/21 08:02:31;;;;;;;5.57;3.90;;;23.40;44.60;;;;;;5052271;28;20067;-66
2023/03/21 08:04:57;;;;;;;6.03;3.65;;;23.80;44.00;;;;;;5055520;28;20396;-66
2023/03/21 08:07:23;;;;;;;5.28;4.10;;;24.20;42.30;;;;;;5055478;28;20099;-66
2023/03/21 08:09:49;;;;;;;4.00;3.40;;;24.40;41.60;;;;;;5055957;28;20029;-66
2023/03/21 08:12:15;;;;;;;4.20;3.40;;;24.40;42.40;;;;;;5055421;28;20017;-65
2023/03/21 08:14:41;;;;;;;4.65;3.72;;;24.70;40.20;;;;;;5055776;28;20115;-66
2023/03/21 08:17:08;;;;;;;7.80;4.22;;;24.30;39.40;;;;;;5055438;28;20115;-65
2023/03/21 08:19:34;;;;;;;4.93;3.55;;;24.40;39.50;;;;;;5055740;28;20099;-66
2023/03/21 08:22:01;;;;;;;4.07;3.67;;;24.50;38.70;;;;;;5055658;28;20032;-65
2023/03/21 08:24:27;;;;;;;7.28;3.70;;;24.10;39.10;;;;;;5055260;28;20029;-65
2023/03/21 08:26:53;;;;;;;6.57;3.80;;;22.90;41.00;;;;;;5054337;28;20060;-64
2023/03/21 08:29:20;;;;;;;4.97;3.88;;;22.80;42.40;;;;;;5055010;28;20025;-66
2023/03/21 08:31:46;;;;;;;4.03;3.63;;;23.30;40.90;;;;;;5055650;28;20036;-65
2023/03/21 08:34:12;;;;;;;6.20;4.22;;;23.30;41.00;;;;;;5055238;28;20462;-66
2023/03/21 08:36:38;;;;;;;4.60;4.10;;;22.70;41.50;;;;;;5055450;28;20032;-66
2023/03/21 08:39:05;;;;;;;5.43;4.18;;;22.80;42.50;;;;;;5055508;28;20033;-65
2023/03/21 08:41:35;;;;;;;4.63;4.05;;;22.50;42.80;;;;;;5055474;28;20087;-66
2023/03/21 08:44:03;;;;;;;7.10;4.50;;;21.80;43.50;;;;;;5055691;28;20461;-66
2023/03/21 08:46:28;;;;;;;6.32;4.22;;;21.40;44.50;;;;;;5054547;28;20029;-66
2023/03/21 08:48:54;;;;;;;6.25;4.10;;;20.80;45.40;;;;;;5055492;28;20029;-67
2023/03/21 08:51:20;;;;;;;5.95;4.10;;;20.40;45.80;;;;;;5054820;28;20025;-65
2023/03/21 08:53:46;;;;;;;6.38;3.95;;;19.90;47.10;;;;;;5055419;28;20029;-65
2023/03/21 08:56:12;;;;;;;7.38;4.85;;;19.60;47.80;;;;;;5054742;28;20100;-65
2023/03/21 08:58:38;;;;;;;7.25;5.07;;;19.40;48.20;;;;;;5055133;28;20068;-66
2023/03/21 09:01:06;;;;;;;6.15;4.65;;;18.90;49.50;;;;;;5053823;28;20025;-66
2023/03/21 09:03:32;;;;;;;6.18;4.63;;;18.30;50.80;;;;;;5054713;28;20063;-65
2023/03/21 09:05:57;;;;;;;8.82;5.45;;;18.30;51.60;;;;;;5054782;28;20047;-66
2023/03/21 09:08:23;;;;;;;8.10;5.13;;;17.90;52.50;;;;;;5054528;28;20029;-65
2023/03/21 09:10:53;;;;;;;6.38;4.95;;;17.90;53.70;;;;;;5055271;28;20033;-66
2023/03/21 09:13:18;;;;;;;7.70;5.63;;;17.60;54.30;;;;;;5054493;28;20058;-65
2023/03/21 09:15:44;;;;;;;7.30;5.32;;;17.40;54.70;;;;;;5054554;28;20487;-66
2023/03/21 09:18:14;;;;;;;5.85;5.00;;;17.10;55.30;;;;;;5054378;28;20393;-66
2023/03/21 09:20:42;;;;;;;6.82;5.22;;;17.20;55.40;;;;;;5054784;28;20110;-66
2023/03/21 09:23:12;;;;;;;6.38;4.90;;;17.10;55.50;;;;;;5054076;28;20551;-65
2023/03/21 09:25:39;;;;;;;6.30;4.82;;;17.10;55.90;;;;;;5054520;28;20028;-66
2023/03/21 09:28:05;;;;;;;6.07;5.10;;;17.10;56.10;;;;;;5054549;28;20114;-65
2023/03/21 09:30:32;;;;;;;8.18;5.13;;;16.80;56.30;;;;;;5053831;28;20709;-66
2023/03/21 09:33:00;;;;;;;9.38;4.88;;;17.00;56.60;;;;;;5054392;28;20158;-65
2023/03/21 09:35:27;;;;;;;6.63;4.65;;;17.00;56.00;;;;;;5053872;28;20096;-65
2023/03/21 09:37:53;;;;;;;5.80;4.40;;;16.90;55.80;;;;;;5054381;28;20037;-66
2023/03/21 09:40:30;;;;;;;5.82;4.78;;;17.00;55.40;;;;;;5053934;28;20017;-65
2023/03/21 09:43:12;;;;;;;6.60;5.10;;;17.10;55.60;;;;;;5054143;28;20389;-65
2023/03/21 09:46:09;;;;;;;4.65;4.25;;;17.20;55.80;;;;;;5054230;28;20072;-66
2023/03/21 09:48:45;;;;;;;6.18;4.50;;;17.20;54.90;;;;;;5053615;28;20037;-66
2023/03/21 09:51:16;;;;;;;7.10;4.30;;;17.30;55.20;;;;;;5053797;28;20029;-67
2023/03/21 09:53:45;;;;;;;5.32;4.38;;;17.30;54.60;;;;;;5054104;28;20029;-66
2023/03/21 09:56:12;;;;;;;5.60;4.50;;;17.30;54.40;;;;;;5054013;28;20050;-66
2023/03/21 09:58:51;;;;;;;6.72;4.15;;;17.30;55.20;;;;;;5053931;28;20044;-66
2023/03/21 10:01:33;;;;;;;5.22;4.43;;;17.70;54.70;;;;;;5053379;28;20086;-65
2023/03/21 10:04:02;;;;;;;6.18;4.55;;;17.80;54.80;;;;;;5054049;28;20029;-66
2023/03/21 10:06:29;;;;;;;8.13;4.57;;;17.90;54.20;;;;;;5052926;28;20033;-67
2023/03/21 10:09:06;;;;;;;5.22;3.97;;;18.00;54.50;;;;;;5053701;28;20037;-65
2023/03/21 10:11:43;;;;;;;4.88;3.92;;;17.80;53.20;;;;;;5053266;28;20024;-65
2023/03/21 10:14:31;;;;;;;6.82;3.83;;;17.70;53.00;;;;;;5053551;28;20025;-66
2023/03/21 10:17:15;;;;;;;9.15;4.25;;;17.50;53.40;;;;;;5053774;28;20040;-66
2023/03/21 10:19:45;;;;;;;7.25;4.07;;;17.50;53.40;;;;;;5053561;28;20110;-66
2023/03/21 10:22:11;;;;;;;6.95;4.47;;;17.60;53.30;;;;;;5053560;28;20096;-65
2023/03/21 10:24:37;;;;;;;6.05;3.90;;;17.50;53.50;;;;;;5053133;28;20021;-65
2023/03/21 10:27:04;;;;;;;4.70;3.72;;;17.50;53.30;;;;;;5052655;28;20039;-66
2023/03/21 10:29:42;;;;;;;5.40;4.22;;;17.60;53.00;;;;;;5052987;28;20115;-66
2023/03/21 10:32:17;;;;;;;4.70;3.38;;;17.70;52.20;;;;;;5053526;28;20037;-66
2023/03/21 10:34:54;;;;;;;3.88;3.10;;;17.60;52.00;;;;;;5053465;28;20049;-66
2023/03/21 10:37:22;;;;;;;6.35;3.88;;;17.70;52.40;;;;;;5052916;28;20056;-65
2023/03/21 10:39:51;;;;;;;6.15;3.20;;;17.70;53.00;;;;;;5052890;28;20053;-65
2023/03/21 10:42:24;;;;;;;6.15;3.88;;;17.70;53.60;;;;;;5052423;28;20075;-66
2023/03/21 10:44:52;;;;;;;4.80;3.95;;;17.50;53.80;;;;;;5053178;28;20032;-66
2023/03/21 10:47:32;;;;;;;6.30;3.92;;;17.30;53.80;;;;;;5052704;28;20052;-66
2023/03/21 10:50:06;;;;;;;4.82;3.65;;;17.20;54.00;;;;;;5053043;28;20125;-65
2023/03/21 10:52:32;;;;;;;7.93;4.28;;;17.30;54.00;;;;;;5052710;28;20129;-65
2023/03/21 10:55:07;;;;;;;7.30;4.90;;;17.40;54.60;;;;;;5052724;28;20384;-65
2023/03/21 10:57:36;;;;;;;8.85;4.43;;;17.30;54.50;;;;;;5052411;28;20056;-66
2023/03/21 11:00:13;;;;;;;5.10;4.15;;;17.40;55.00;;;;;;5052773;28;20029;-66
2023/03/21 11:02:40;;;;;;;5.63;4.15;;;17.70;55.00;;;;;;5052214;28;20025;-66
2023/03/21 11:05:17;;;;;;;7.22;4.25;;;17.90;55.40;;;;;;5053151;28;20377;-65
2023/03/21 11:07:43;;;;;;;5.22;3.88;;;18.00;53.10;;;;;;5052784;28;20033;-66
2023/03/21 11:10:26;;;;;;;5.22;4.15;;;17.90;52.80;;;;;;5052730;28;20378;-66
2023/03/21 11:12:56;;;;;;;6.43;4.68;;;17.80;52.40;;;;;;5052725;28;20029;-66
2023/03/21 11:15:25;;;;;;;8.27;4.95;;;17.40;53.70;;;;;;5051874;28;20024;-66
2023/03/21 11:17:51;;;;;;;6.80;4.20;;;17.40;53.60;;;;;;5052372;28;20028;-65
2023/03/21 11:20:19;;;;;;;6.78;4.20;;;17.30;53.50;;;;;;5051962;28;20386;-66
2023/03/21 11:22:46;;;;;;;6.93;4.38;;;17.40;53.60;;;;;;5051799;28;20033;-65
2023/03/21 11:25:26;;;;;;;5.78;4.53;;;17.50;53.60;;;;;;5052406;28;20021;-65
2023/03/21 11:27:55;;;;;;;5.27;4.03;;;17.70;53.10;;;;;;5051697;28;20070;-67
2023/03/21 11:30:26;;;;;;;4.60;4.15;;;17.90;53.80;;;;;;5051871;28;20029;-67
2023/03/21 11:32:56;;;;;;;;;;;18.20;53.50;;;;;;5052756;28;20024;-66
2023/03/21 11:35:27;;;;;;;5.55;4.20;;;18.30;52.20;;;;;;5052176;28;19905;-65
2023/03/21 11:37:55;;;;;;;5.82;4.45;;;18.30;52.90;;;;;;5052469;28;20025;-66
2023/03/21 11:40:35;;;;;;;5.75;4.22;;;18.30;51.80;;;;;;5056110;28;20115;-67
2023/03/21 11:43:15;;;;;;;5.93;4.18;;;18.20;52.10;;;;;;5056389;28;20128;-66
2023/03/21 11:45:58;;;;;;;4.97;4.35;;;18.00;52.10;;;;;;5055544;28;20032;-65
2023/03/21 11:48:25;;;;;;;4.90;4.25;;;18.10;53.10;;;;;;5055832;28;20033;-64
2023/03/21 11:50:59;;;;;;;5.47;4.03;;;18.10;53.70;;;;;;5056275;28;20032;-65
2023/03/21 11:54:08;;;;;;;5.95;4.93;;;18.20;52.90;;;;;;5055490;28;20025;-66
2023/03/21 11:57:00;;;;;;;4.65;4.03;;;18.10;52.00;;;;;;5013438;28;20123;-65
2023/03/21 11:59:46;;;;;;;6.22;4.25;;;18.00;52.60;;;;;;5047411;28;20041;-65
2023/03/21 12:02:33;;;;;;;6.18;4.03;;;17.90;53.30;;;;;;5055902;28;20020;-64
2023/03/21 12:05:18;;;;;;;5.18;3.63;;;18.00;53.20;;;;;;5055820;28;20079;-65
2023/03/21 12:08:04;;;;;;;5.13;3.30;;;18.00;53.00;;;;;;5055222;28;20124;-65
2023/03/21 12:10:33;;;;;;;7.88;3.47;;;18.10;52.10;;;;;;5054990;28;20071;-65
2023/03/21 12:13:07;;;;;;;3.17;2.88;;;18.10;51.30;;;;;;5055702;28;20033;-65
2023/03/21 12:16:04;;;;;;;6.55;3.63;;;18.10;50.60;;;;;;5055340;28;20032;-66
2023/03/21 12:18:50;;;;;;;4.07;3.13;;;18.10;51.20;;;;;;5055785;28;20055;-65
2023/03/21 12:21:37;;;;;;;6.82;3.50;;;18.20;51.90;;;;;;5055592;28;20052;-66
2023/03/21 12:24:19;;;;;;;4.05;3.28;;;18.20;50.90;;;;;;5055572;28;20389;-65
2023/03/21 12:27:02;;;;;;;4.72;3.13;;;18.10;50.10;;;;;;5055235;28;20028;-66
2023/03/21 12:29:48;;;;;;;6.10;3.63;;;18.20;50.50;;;;;;5055287;28;20099;-64
2023/03/21 12:32:38;;;;;;;7.00;3.30;;;18.10;50.90;;;;;;5055570;28;20021;-66
2023/03/21 12:35:22;;;;;;;3.78;2.80;;;18.00;50.20;;;;;;5055523;28;20021;-66
2023/03/21 12:37:57;;;;;;;2.63;2.15;;;17.90;51.00;;;;;;5055123;28;20060;-66
2023/03/21 12:40:47;;;;;;;3.63;2.40;;;17.90;50.60;;;;;;5055518;28;20024;-66
2023/03/21 12:43:31;;;;;;;5.18;2.20;;;18.00;50.20;;;;;;5055515;28;20055;-65
2023/03/21 12:46:04;;;;;;;4.68;2.65;;;17.90;50.10;;;;;;5055317;28;20032;-66
2023/03/21 12:48:47;;;;;;;3.05;2.63;;;17.90;50.10;;;;;;5054607;28;20029;-66
2023/03/21 12:51:17;;;;;;;3.55;1.77;;;18.00;50.10;;;;;;5055212;28;20474;-66
2023/03/21 12:54:00;;;;;;;3.70;2.28;;;18.00;49.90;;;;;;5054833;28;20039;-66
2023/03/21 12:56:34;;;;;;;4.28;2.38;;;18.10;50.00;;;;;;5055058;28;20033;-66
2023/03/21 12:59:12;;;;;;;4.28;2.20;;;18.20;49.90;;;;;;5054891;28;20059;-66
2023/03/21 13:01:41;;;;;;;4.53;1.60;;;18.20;48.80;;;;;;5054111;28;20397;-65
2023/03/21 13:04:44;;;;;;;5.85;2.25;;;18.30;49.60;;;;;;5054595;28;20021;-65
2023/03/21 13:07:16;;;;;;;3.22;2.05;;;18.30;49.40;;;;;;5054876;28;20044;-65
2023/03/21 13:09:42;;;;;;;3.35;1.90;;;18.20;48.00;;;;;;5054191;28;20040;-66